Lifter — V2DD4 — position and weather

sailwx.info

Track history (hours):
 
Tides and Currents Weather Stations Pressure Air Temp Water Temp Dewpoint Dewpoint Depression Visibility Wind Speed Wind Dir Waves Ship Positions

Lifter

Last reported at 2015-Aug-28 07:13 UTC. Time now 2015-Aug-30 14:03 UTC.
Position N 40°45' E 029°32'.

Length 118 m; draft 7.6 m.

Type: Ship. MMSI: 305175000.

Date/timePositionNaut miles runAvg speedWind from/ knotsBaromVisibWave heightAir tempDewpointWater temp
2015-Aug-28 07:13N 40°45' E 029°32'811.4
2015-Aug-28 06:33N 40°44' E 029°22'1110.6
2015-Aug-28 05:34N 40°44' E 029°08'1312.2
2015-Aug-28 04:32N 40°44' E 028°52'226 9.3
2015-Aug-27 04:15N 37°47' E 025°49'912.1
2015-Aug-27 03:31N 37°39' E 025°53'1311.9
2015-Aug-27 02:28N 37°27' E 025°58'1312.6
2015-Aug-27 01:25N 37°14' E 026°04'1212.6
2015-Aug-27 00:28N 37°04' E 026°10'1111.9
2015-Aug-26 23:33N 36°55' E 026°18'1212.3
2015-Aug-26 22:32N 36°48' E 026°31'2612.1
2015-Aug-26 20:23N 36°34' E 026°59'1212.1
2015-Aug-26 19:25N 36°32' E 027°13'1212.4
2015-Aug-26 18:25N 36°31' E 027°29'1112.3
2015-Aug-26 17:32N 36°30' E 027°42'1312.4
2015-Aug-26 16:32N 36°30' E 027°58'1212.2
2015-Aug-26 15:31N 36°30' E 028°13'109 3.9
2015-Aug-25 11:25N 36°09' E 026°01'910.3
2015-Aug-25 10:34N 36°08' E 025°50'11 9.9
2015-Aug-25 09:27N 36°06' E 025°36'910.4
2015-Aug-25 08:34N 36°05' E 025°25'1111.3
2015-Aug-25 07:33N 36°04' E 025°11'1111.2
2015-Aug-25 06:33N 36°01' E 024°58'46312.1
2015-Aug-23 16:21N 35°55' E 015°26'2712.7
2015-Aug-23 14:14N 35°55' E 014°53'912.6
2015-Aug-23 13:30N 35°55' E 014°41'8 1.3
2015-Aug-23 07:33N 35°54' E 014°32'7 7.4
2015-Aug-23 06:33N 36°01' E 014°29'1212.0
2015-Aug-23 05:33N 36°09' E 014°17'1212.4
2015-Aug-23 04:33N 36°15' E 014°04'1212.5
2015-Aug-23 03:33N 36°20' E 013°49'1312.5
2015-Aug-23 02:33N 36°26' E 013°36'1312.7
2015-Aug-23 01:33N 36°32' E 013°22'1313.2
2015-Aug-23 00:33N 36°37' E 013°07'1313.1
2015-Aug-22 23:33N 36°43' E 012°52'1312.9
2015-Aug-22 22:33N 36°48' E 012°37'1413.1
2015-Aug-22 21:30N 36°53' E 012°21'6312.4
2015-Aug-22 16:24N 37°21' E 011°10'13512.4
2015-Aug-22 05:30N 38°30' E 008°43'3812.7
2015-Aug-22 02:32N 38°55' E 008°07'9412.8
2015-Aug-21 19:12N 40°28' E 007°47'13412.4
2015-Aug-21 08:27N 42°41' E 007°27'1212.1
2015-Aug-21 07:29N 42°52' E 007°25'1112.2
2015-Aug-21 06:33N 43°04' E 007°24'2411.7
2015-Aug-21 04:32N 43°27' E 007°20'1313.0
2015-Aug-21 03:30N 43°40' E 007°18'1 0.4
2015-Aug-21 00:04N 43°42' E 007°17'0 0.1
2015-Aug-20 23:28N 43°42' E 007°17'0 0.0
2015-Aug-20 22:28N 43°42' E 007°17'0 0.0
2015-Aug-20 21:28N 43°42' E 007°17'0 0.0
2015-Aug-20 20:28N 43°42' E 007°17'0 0.0
2015-Aug-20 19:16N 43°42' E 007°17'0 0.0
2015-Aug-20 18:28N 43°42' E 007°17'0 0.0
2015-Aug-20 17:28N 43°42' E 007°17'0 0.0
2015-Aug-20 16:28N 43°42' E 007°17'0 0.1
2015-Aug-20 15:33N 43°42' E 007°17'7 6.8
2015-Aug-20 14:33N 43°35' E 007°13'1211.8
2015-Aug-20 13:33N 43°26' E 007°04'1211.7
2015-Aug-20 12:33N 43°16' E 006°55'1211.7
2015-Aug-20 11:33N 43°07' E 006°46'1211.7
2015-Aug-20 10:33N 42°57' E 006°36'20912.2
2015-Aug-19 17:25N 40°27' E 003°21'1112.8
2015-Aug-19 16:33N 40°19' E 003°11'1312.7
2015-Aug-19 15:33N 40°10' E 002°60'1312.5
2015-Aug-19 14:33N 40°00' E 002°48'1212.4
2015-Aug-19 13:33N 39°51' E 002°37'1212.4
2015-Aug-19 12:33N 39°42' E 002°26'1211.6
2015-Aug-19 11:33N 39°33' E 002°18'1212.4
2015-Aug-19 10:33N 39°26' E 002°31'8 8.3
2015-Aug-19 09:33N 39°33' E 002°38'0 0.1
2015-Aug-19 08:32N 39°33' E 002°38'0 0.0
2015-Aug-19 07:32N 39°33' E 002°38'0 0.0
2015-Aug-19 06:32N 39°33' E 002°38'0 0.0
2015-Aug-19 05:32N 39°33' E 002°38'0 0.0
2015-Aug-19 04:32N 39°33' E 002°38'0 0.0
2015-Aug-19 03:32N 39°33' E 002°38'0 0.0
2015-Aug-19 02:32N 39°33' E 002°38'0 0.0
2015-Aug-19 01:32N 39°33' E 002°38'0 0.0
2015-Aug-19 00:32N 39°33' E 002°38'0 0.0
2015-Aug-18 23:32N 39°33' E 002°38'0 0.0
2015-Aug-18 22:32N 39°33' E 002°38'0 0.0
2015-Aug-18 21:32N 39°33' E 002°38'0 0.0
2015-Aug-18 20:32N 39°33' E 002°38'1 0.9
2015-Aug-18 19:33N 39°33' E 002°39'1111.0
2015-Aug-18 18:33N 39°24' E 002°30'1212.5
2015-Aug-18 17:33N 39°15' E 002°19'1212.5
2015-Aug-18 16:33N 39°05' E 002°08'1312.9
2015-Aug-18 15:32N 38°55' E 001°57'1312.9
2015-Aug-18 14:33N 38°46' E 001°47'  
Track history (hours):
 
Tides and Currents Weather Stations Pressure Air Temp Water Temp Dewpoint Dewpoint Depression Visibility Wind Speed Wind Dir Waves Ship Positions

Lifter

Last reported at 2015-Aug-28 07:13 UTC. Time now 2015-Aug-30 14:03 UTC.
Position N 40°45' E 029°32'.

Length 118 m; draft 7.6 m.

Type: Ship. MMSI: 305175000.

Date/timePositionNaut miles runAvg speedWind from/ knotsBaromVisibWave heightAir tempDewpointWater temp
2015-Aug-28 07:13N 40°45' E 029°32'811.4
2015-Aug-28 06:33N 40°44' E 029°22'1110.6
2015-Aug-28 05:34N 40°44' E 029°08'1312.2
2015-Aug-28 04:32N 40°44' E 028°52'226 9.3
2015-Aug-27 04:15N 37°47' E 025°49'912.1
2015-Aug-27 03:31N 37°39' E 025°53'1311.9
2015-Aug-27 02:28N 37°27' E 025°58'1312.6
2015-Aug-27 01:25N 37°14' E 026°04'1212.6
2015-Aug-27 00:28N 37°04' E 026°10'1111.9
2015-Aug-26 23:33N 36°55' E 026°18'1212.3
2015-Aug-26 22:32N 36°48' E 026°31'2612.1
2015-Aug-26 20:23N 36°34' E 026°59'1212.1
2015-Aug-26 19:25N 36°32' E 027°13'1212.4
2015-Aug-26 18:25N 36°31' E 027°29'1112.3
2015-Aug-26 17:32N 36°30' E 027°42'1312.4
2015-Aug-26 16:32N 36°30' E 027°58'1212.2
2015-Aug-26 15:31N 36°30' E 028°13'109 3.9
2015-Aug-25 11:25N 36°09' E 026°01'910.3
2015-Aug-25 10:34N 36°08' E 025°50'11 9.9
2015-Aug-25 09:27N 36°06' E 025°36'910.4
2015-Aug-25 08:34N 36°05' E 025°25'1111.3
2015-Aug-25 07:33N 36°04' E 025°11'1111.2
2015-Aug-25 06:33N 36°01' E 024°58'46312.1
2015-Aug-23 16:21N 35°55' E 015°26'2712.7
2015-Aug-23 14:14N 35°55' E 014°53'912.6
2015-Aug-23 13:30N 35°55' E 014°41'8 1.3
2015-Aug-23 07:33N 35°54' E 014°32'7 7.4
2015-Aug-23 06:33N 36°01' E 014°29'1212.0
2015-Aug-23 05:33N 36°09' E 014°17'1212.4
2015-Aug-23 04:33N 36°15' E 014°04'1212.5
2015-Aug-23 03:33N 36°20' E 013°49'1312.5
2015-Aug-23 02:33N 36°26' E 013°36'1312.7
2015-Aug-23 01:33N 36°32' E 013°22'1313.2
2015-Aug-23 00:33N 36°37' E 013°07'1313.1
2015-Aug-22 23:33N 36°43' E 012°52'1312.9
2015-Aug-22 22:33N 36°48' E 012°37'1413.1
2015-Aug-22 21:30N 36°53' E 012°21'6312.4
2015-Aug-22 16:24N 37°21' E 011°10'13512.4
2015-Aug-22 05:30N 38°30' E 008°43'3812.7
2015-Aug-22 02:32N 38°55' E 008°07'9412.8
2015-Aug-21 19:12N 40°28' E 007°47'13412.4
2015-Aug-21 08:27N 42°41' E 007°27'1212.1
2015-Aug-21 07:29N 42°52' E 007°25'1112.2
2015-Aug-21 06:33N 43°04' E 007°24'2411.7
2015-Aug-21 04:32N 43°27' E 007°20'1313.0
2015-Aug-21 03:30N 43°40' E 007°18'1 0.4
2015-Aug-21 00:04N 43°42' E 007°17'0 0.1
2015-Aug-20 23:28N 43°42' E 007°17'0 0.0
2015-Aug-20 22:28N 43°42' E 007°17'0 0.0
2015-Aug-20 21:28N 43°42' E 007°17'0 0.0
2015-Aug-20 20:28N 43°42' E 007°17'0 0.0
2015-Aug-20 19:16N 43°42' E 007°17'0 0.0
2015-Aug-20 18:28N 43°42' E 007°17'0 0.0
2015-Aug-20 17:28N 43°42' E 007°17'0 0.0
2015-Aug-20 16:28N 43°42' E 007°17'0 0.1
2015-Aug-20 15:33N 43°42' E 007°17'7 6.8
2015-Aug-20 14:33N 43°35' E 007°13'1211.8
2015-Aug-20 13:33N 43°26' E 007°04'1211.7
2015-Aug-20 12:33N 43°16' E 006°55'1211.7
2015-Aug-20 11:33N 43°07' E 006°46'1211.7
2015-Aug-20 10:33N 42°57' E 006°36'20912.2
2015-Aug-19 17:25N 40°27' E 003°21'1112.8
2015-Aug-19 16:33N 40°19' E 003°11'1312.7
2015-Aug-19 15:33N 40°10' E 002°60'1312.5
2015-Aug-19 14:33N 40°00' E 002°48'1212.4
2015-Aug-19 13:33N 39°51' E 002°37'1212.4
2015-Aug-19 12:33N 39°42' E 002°26'1211.6
2015-Aug-19 11:33N 39°33' E 002°18'1212.4
2015-Aug-19 10:33N 39°26' E 002°31'8 8.3
2015-Aug-19 09:33N 39°33' E 002°38'0 0.1
2015-Aug-19 08:32N 39°33' E 002°38'0 0.0
2015-Aug-19 07:32N 39°33' E 002°38'0 0.0
2015-Aug-19 06:32N 39°33' E 002°38'0 0.0
2015-Aug-19 05:32N 39°33' E 002°38'0 0.0
2015-Aug-19 04:32N 39°33' E 002°38'0 0.0
2015-Aug-19 03:32N 39°33' E 002°38'0 0.0
2015-Aug-19 02:32N 39°33' E 002°38'0 0.0
2015-Aug-19 01:32N 39°33' E 002°38'0 0.0
2015-Aug-19 00:32N 39°33' E 002°38'0 0.0
2015-Aug-18 23:32N 39°33' E 002°38'0 0.0
2015-Aug-18 22:32N 39°33' E 002°38'0 0.0
2015-Aug-18 21:32N 39°33' E 002°38'0 0.0
2015-Aug-18 20:32N 39°33' E 002°38'1 0.9
2015-Aug-18 19:33N 39°33' E 002°39'1111.0
2015-Aug-18 18:33N 39°24' E 002°30'1212.5
2015-Aug-18 17:33N 39°15' E 002°19'1212.5
2015-Aug-18 16:33N 39°05' E 002°08'1312.9
2015-Aug-18 15:32N 38°55' E 001°57'1312.9
2015-Aug-18 14:33N 38°46' E 001°47'  

Dump ship's entire track history